sensor_id;sensor_type;location;lat;lon;timestamp;P1;durP1;ratioP1;P2;durP2;ratioP2
69594;SDS011;56800;52.142;5.364;2023-08-24T00:01:54;9.07;;;4.72;;
69594;SDS011;56800;52.142;5.364;2023-08-24T00:04:21;12.82;;;4.55;;
69594;SDS011;56800;52.142;5.364;2023-08-24T00:06:48;8.90;;;4.32;;
69594;SDS011;56800;52.142;5.364;2023-08-24T00:09:15;9.30;;;5.00;;
69594;SDS011;56800;52.142;5.364;2023-08-24T00:11:42;11.07;;;4.73;;
69594;SDS011;56800;52.142;5.364;2023-08-24T00:14:09;11.63;;;4.20;;
69594;SDS011;56800;52.142;5.364;2023-08-24T00:16:35;10.43;;;4.63;;
69594;SDS011;56800;52.142;5.364;2023-08-24T00:19:03;9.35;;;5.15;;
69594;SDS011;56800;52.142;5.364;2023-08-24T00:21:29;9.38;;;4.50;;
69594;SDS011;56800;52.142;5.364;2023-08-24T00:23:57;14.73;;;5.60;;
69594;SDS011;56800;52.142;5.364;2023-08-24T00:26:23;7.68;;;4.32;;
69594;SDS011;56800;52.142;5.364;2023-08-24T00:28:51;10.95;;;4.95;;
69594;SDS011;56800;52.142;5.364;2023-08-24T00:31:17;10.75;;;5.32;;
69594;SDS011;56800;52.142;5.364;2023-08-24T00:33:45;9.88;;;5.28;;
69594;SDS011;56800;52.142;5.364;2023-08-24T00:36:11;11.47;;;5.27;;
69594;SDS011;56800;52.142;5.364;2023-08-24T00:38:38;10.32;;;4.68;;
69594;SDS011;56800;52.142;5.364;2023-08-24T00:41:05;9.60;;;5.10;;
69594;SDS011;56800;52.142;5.364;2023-08-24T00:43:32;10.90;;;5.18;;
69594;SDS011;56800;52.142;5.364;2023-08-24T00:45:59;10.52;;;5.93;;
69594;SDS011;56800;52.142;5.364;2023-08-24T00:48:27;7.87;;;4.97;;
69594;SDS011;56800;52.142;5.364;2023-08-24T00:50:56;12.18;;;4.97;;
69594;SDS011;56800;52.142;5.364;2023-08-24T00:53:25;8.73;;;4.35;;
69594;SDS011;56800;52.142;5.364;2023-08-24T00:55:54;7.82;;;4.40;;
69594;SDS011;56800;52.142;5.364;2023-08-24T00:58:21;8.45;;;4.32;;
69594;SDS011;56800;52.142;5.364;2023-08-24T01:00:49;10.33;;;3.90;;
69594;SDS011;56800;52.142;5.364;2023-08-24T01:03:18;13.75;;;5.60;;
69594;SDS011;56800;52.142;5.364;2023-08-24T01:05:48;11.68;;;4.78;;
69594;SDS011;56800;52.142;5.364;2023-08-24T01:08:14;8.18;;;4.22;;
69594;SDS011;56800;52.142;5.364;2023-08-24T01:13:18;9.70;;;4.87;;
69594;SDS011;56800;52.142;5.364;2023-08-24T01:15:55;9.55;;;4.68;;
69594;SDS011;56800;52.142;5.364;2023-08-24T01:18:26;8.95;;;4.70;;
69594;SDS011;56800;52.142;5.364;2023-08-24T01:20:54;12.25;;;4.60;;
69594;SDS011;56800;52.142;5.364;2023-08-24T01:28:41;10.43;;;5.25;;
69594;SDS011;56800;52.142;5.364;2023-08-24T01:31:10;8.77;;;4.55;;
69594;SDS011;56800;52.142;5.364;2023-08-24T01:33:39;8.05;;;4.80;;
69594;SDS011;56800;52.142;5.364;2023-08-24T01:36:07;9.00;;;4.63;;
69594;SDS011;56800;52.142;5.364;2023-08-24T01:38:36;8.77;;;4.50;;
69594;SDS011;56800;52.142;5.364;2023-08-24T01:41:17;8.00;;;4.25;;
69594;SDS011;56800;52.142;5.364;2023-08-24T01:43:51;10.88;;;4.65;;
69594;SDS011;56800;52.142;5.364;2023-08-24T01:46:20;9.52;;;5.10;;
69594;SDS011;56800;52.142;5.364;2023-08-24T01:48:48;9.18;;;5.00;;
69594;SDS011;56800;52.142;5.364;2023-08-24T01:51:17;14.87;;;5.20;;
69594;SDS011;56800;52.142;5.364;2023-08-24T01:53:44;8.35;;;5.10;;
69594;SDS011;56800;52.142;5.364;2023-08-24T01:56:12;10.40;;;4.68;;
69594;SDS011;56800;52.142;5.364;2023-08-24T01:58:41;6.80;;;4.28;;
69594;SDS011;56800;52.142;5.364;2023-08-24T02:01:08;6.63;;;4.30;;
69594;SDS011;56800;52.142;5.364;2023-08-24T02:03:36;7.77;;;4.07;;
69594;SDS011;56800;52.142;5.364;2023-08-24T02:06:05;7.75;;;4.63;;
69594;SDS011;56800;52.142;5.364;2023-08-24T02:08:33;7.85;;;3.80;;
69594;SDS011;56800;52.142;5.364;2023-08-24T02:11:00;10.10;;;4.22;;
69594;SDS011;56800;52.142;5.364;2023-08-24T02:13:27;7.70;;;4.38;;
69594;SDS011;56800;52.142;5.364;2023-08-24T02:16:04;11.43;;;4.80;;
69594;SDS011;56800;52.142;5.364;2023-08-24T02:18:32;12.10;;;5.05;;
69594;SDS011;56800;52.142;5.364;2023-08-24T02:20:59;6.55;;;4.13;;
69594;SDS011;56800;52.142;5.364;2023-08-24T02:23:26;8.90;;;4.65;;
69594;SDS011;56800;52.142;5.364;2023-08-24T02:25:53;9.95;;;5.05;;
69594;SDS011;56800;52.142;5.364;2023-08-24T02:28:22;7.87;;;4.47;;
69594;SDS011;56800;52.142;5.364;2023-08-24T02:30:48;12.75;;;4.65;;
69594;SDS011;56800;52.142;5.364;2023-08-24T02:33:15;10.27;;;4.70;;
69594;SDS011;56800;52.142;5.364;2023-08-24T02:35:42;7.88;;;4.57;;
69594;SDS011;56800;52.142;5.364;2023-08-24T02:38:10;13.50;;;6.45;;
69594;SDS011;56800;52.142;5.364;2023-08-24T02:40:37;8.13;;;5.30;;
69594;SDS011;56800;52.142;5.364;2023-08-24T02:43:04;12.60;;;5.20;;
69594;SDS011;56800;52.142;5.364;2023-08-24T02:45:31;10.27;;;5.30;;
69594;SDS011;56800;52.142;5.364;2023-08-24T02:47:57;9.73;;;6.00;;
69594;SDS011;56800;52.142;5.364;2023-08-24T02:50:24;9.82;;;5.70;;
69594;SDS011;56800;52.142;5.364;2023-08-24T02:52:51;9.10;;;5.03;;
69594;SDS011;56800;52.142;5.364;2023-08-24T02:55:18;7.57;;;4.63;;
69594;SDS011;56800;52.142;5.364;2023-08-24T02:57:45;11.95;;;6.75;;
69594;SDS011;56800;52.142;5.364;2023-08-24T03:00:12;12.68;;;7.05;;
69594;SDS011;56800;52.142;5.364;2023-08-24T03:02:40;9.55;;;7.50;;
69594;SDS011;56800;52.142;5.364;2023-08-24T03:05:06;12.00;;;7.20;;
69594;SDS011;56800;52.142;5.364;2023-08-24T03:07:33;13.52;;;7.45;;
69594;SDS011;56800;52.142;5.364;2023-08-24T03:10:00;11.88;;;6.55;;
69594;SDS011;56800;52.142;5.364;2023-08-24T03:12:27;11.85;;;6.40;;
69594;SDS011;56800;52.142;5.364;2023-08-24T03:14:54;11.43;;;7.15;;
69594;SDS011;56800;52.142;5.364;2023-08-24T03:17:20;12.73;;;8.07;;
69594;SDS011;56800;52.142;5.364;2023-08-24T03:19:47;13.07;;;8.23;;
69594;SDS011;56800;52.142;5.364;2023-08-24T03:22:14;12.07;;;7.43;;
69594;SDS011;56800;52.142;5.364;2023-08-24T03:24:41;14.10;;;7.60;;
69594;SDS011;56800;52.142;5.364;2023-08-24T03:27:07;14.73;;;8.48;;
69594;SDS011;56800;52.142;5.364;2023-08-24T03:29:34;12.37;;;7.37;;
69594;SDS011;56800;52.142;5.364;2023-08-24T03:32:01;15.73;;;7.90;;
69594;SDS011;56800;52.142;5.364;2023-08-24T03:34:27;15.43;;;8.50;;
69594;SDS011;56800;52.142;5.364;2023-08-24T03:36:56;15.80;;;7.93;;
69594;SDS011;56800;52.142;5.364;2023-08-24T03:39:22;12.55;;;8.65;;
69594;SDS011;56800;52.142;5.364;2023-08-24T03:41:49;12.30;;;8.03;;
69594;SDS011;56800;52.142;5.364;2023-08-24T03:44:16;19.17;;;9.05;;
69594;SDS011;56800;52.142;5.364;2023-08-24T03:46:42;15.00;;;8.55;;
69594;SDS011;56800;52.142;5.364;2023-08-24T03:49:09;13.27;;;7.90;;
69594;SDS011;56800;52.142;5.364;2023-08-24T03:51:36;13.45;;;8.48;;
69594;SDS011;56800;52.142;5.364;2023-08-24T03:54:03;12.93;;;8.23;;
69594;SDS011;56800;52.142;5.364;2023-08-24T03:56:31;14.52;;;8.63;;
69594;SDS011;56800;52.142;5.364;2023-08-24T03:58:58;18.40;;;8.70;;
69594;SDS011;56800;52.142;5.364;2023-08-24T04:01:25;11.90;;;8.20;;
69594;SDS011;56800;52.142;5.364;2023-08-24T04:03:52;12.82;;;8.00;;
69594;SDS011;56800;52.142;5.364;2023-08-24T04:06:19;13.20;;;8.77;;
69594;SDS011;56800;52.142;5.364;2023-08-24T04:08:45;17.50;;;9.93;;
69594;SDS011;56800;52.142;5.364;2023-08-24T04:11:12;13.15;;;9.10;;
69594;SDS011;56800;52.142;5.364;2023-08-24T04:13:39;17.30;;;9.40;;
69594;SDS011;56800;52.142;5.364;2023-08-24T04:16:06;12.77;;;8.25;;
69594;SDS011;56800;52.142;5.364;2023-08-24T04:18:32;15.87;;;9.77;;
69594;SDS011;56800;52.142;5.364;2023-08-24T04:20:59;14.20;;;7.97;;
69594;SDS011;56800;52.142;5.364;2023-08-24T04:23:26;13.55;;;8.80;;
69594;SDS011;56800;52.142;5.364;2023-08-24T04:25:54;13.20;;;8.73;;
69594;SDS011;56800;52.142;5.364;2023-08-24T04:28:21;14.07;;;8.88;;
69594;SDS011;56800;52.142;5.364;2023-08-24T04:30:51;13.80;;;8.33;;
69594;SDS011;56800;52.142;5.364;2023-08-24T04:33:22;12.77;;;8.45;;
69594;SDS011;56800;52.142;5.364;2023-08-24T04:35:49;16.52;;;9.00;;
69594;SDS011;56800;52.142;5.364;2023-08-24T04:38:17;17.15;;;9.30;;
69594;SDS011;56800;52.142;5.364;2023-08-24T04:40:54;12.55;;;8.38;;
69594;SDS011;56800;52.142;5.364;2023-08-24T04:43:22;16.20;;;8.97;;
69594;SDS011;56800;52.142;5.364;2023-08-24T04:45:50;15.57;;;9.55;;
69594;SDS011;56800;52.142;5.364;2023-08-24T04:48:21;15.90;;;9.18;;
69594;SDS011;56800;52.142;5.364;2023-08-24T04:50:49;13.88;;;8.57;;
69594;SDS011;56800;52.142;5.364;2023-08-24T04:53:17;20.15;;;8.13;;
69594;SDS011;56800;52.142;5.364;2023-08-24T04:55:44;16.90;;;8.97;;
69594;SDS011;56800;52.142;5.364;2023-08-24T04:58:12;16.65;;;8.52;;
69594;SDS011;56800;52.142;5.364;2023-08-24T05:00:39;16.25;;;8.75;;
69594;SDS011;56800;52.142;5.364;2023-08-24T05:03:06;14.68;;;8.48;;
69594;SDS011;56800;52.142;5.364;2023-08-24T05:05:36;14.02;;;8.40;;
69594;SDS011;56800;52.142;5.364;2023-08-24T05:08:04;14.47;;;8.73;;
69594;SDS011;56800;52.142;5.364;2023-08-24T05:10:39;14.73;;;8.20;;
69594;SDS011;56800;52.142;5.364;2023-08-24T05:13:06;14.43;;;8.38;;
69594;SDS011;56800;52.142;5.364;2023-08-24T05:15:33;12.18;;;7.60;;
69594;SDS011;56800;52.142;5.364;2023-08-24T05:17:59;14.85;;;8.35;;
69594;SDS011;56800;52.142;5.364;2023-08-24T05:20:26;14.47;;;8.57;;
69594;SDS011;56800;52.142;5.364;2023-08-24T05:22:53;26.52;;;8.98;;
69594;SDS011;56800;52.142;5.364;2023-08-24T05:25:24;15.23;;;8.00;;
69594;SDS011;56800;52.142;5.364;2023-08-24T05:27:50;12.60;;;8.00;;
69594;SDS011;56800;52.142;5.364;2023-08-24T05:30:18;17.40;;;7.95;;
69594;SDS011;56800;52.142;5.364;2023-08-24T05:32:45;13.03;;;8.13;;
69594;SDS011;56800;52.142;5.364;2023-08-24T05:35:11;14.27;;;8.93;;
69594;SDS011;56800;52.142;5.364;2023-08-24T05:37:38;14.70;;;8.52;;
69594;SDS011;56800;52.142;5.364;2023-08-24T05:40:05;12.43;;;8.18;;
69594;SDS011;56800;52.142;5.364;2023-08-24T05:42:32;12.25;;;8.15;;
69594;SDS011;56800;52.142;5.364;2023-08-24T05:44:59;16.80;;;9.73;;
69594;SDS011;56800;52.142;5.364;2023-08-24T05:47:26;13.38;;;8.27;;
69594;SDS011;56800;52.142;5.364;2023-08-24T05:49:52;13.13;;;8.13;;
69594;SDS011;56800;52.142;5.364;2023-08-24T05:52:19;19.40;;;8.82;;
69594;SDS011;56800;52.142;5.364;2023-08-24T05:54:46;14.10;;;8.25;;
69594;SDS011;56800;52.142;5.364;2023-08-24T05:57:13;15.67;;;8.60;;
69594;SDS011;56800;52.142;5.364;2023-08-24T05:59:40;14.88;;;8.23;;
69594;SDS011;56800;52.142;5.364;2023-08-24T06:02:07;16.42;;;8.40;;
69594;SDS011;56800;52.142;5.364;2023-08-24T06:04:33;19.73;;;8.40;;
69594;SDS011;56800;52.142;5.364;2023-08-24T06:07:00;14.48;;;7.80;;
69594;SDS011;56800;52.142;5.364;2023-08-24T06:09:27;14.47;;;7.93;;
69594;SDS011;56800;52.142;5.364;2023-08-24T06:11:54;15.45;;;7.85;;
69594;SDS011;56800;52.142;5.364;2023-08-24T06:14:20;15.60;;;7.72;;
69594;SDS011;56800;52.142;5.364;2023-08-24T06:16:47;13.43;;;6.95;;
69594;SDS011;56800;52.142;5.364;2023-08-24T06:19:15;12.85;;;7.05;;
69594;SDS011;56800;52.142;5.364;2023-08-24T06:21:41;16.07;;;7.87;;
69594;SDS011;56800;52.142;5.364;2023-08-24T06:24:08;9.80;;;7.20;;
69594;SDS011;56800;52.142;5.364;2023-08-24T06:26:35;11.25;;;8.05;;
69594;SDS011;56800;52.142;5.364;2023-08-24T06:29:02;14.18;;;7.60;;
69594;SDS011;56800;52.142;5.364;2023-08-24T06:31:29;13.90;;;7.93;;
69594;SDS011;56800;52.142;5.364;2023-08-24T06:33:57;10.93;;;6.37;;
69594;SDS011;56800;52.142;5.364;2023-08-24T06:36:24;12.25;;;7.55;;
69594;SDS011;56800;52.142;5.364;2023-08-24T06:38:51;13.73;;;7.65;;
69594;SDS011;56800;52.142;5.364;2023-08-24T06:41:19;14.20;;;7.47;;
69594;SDS011;56800;52.142;5.364;2023-08-24T06:43:46;14.77;;;6.47;;
69594;SDS011;56800;52.142;5.364;2023-08-24T06:46:12;14.60;;;6.87;;
69594;SDS011;56800;52.142;5.364;2023-08-24T06:48:40;15.10;;;8.07;;
69594;SDS011;56800;52.142;5.364;2023-08-24T06:51:09;14.02;;;7.70;;
69594;SDS011;56800;52.142;5.364;2023-08-24T06:53:36;12.80;;;8.43;;
69594;SDS011;56800;52.142;5.364;2023-08-24T06:56:03;15.05;;;8.20;;
69594;SDS011;56800;52.142;5.364;2023-08-24T06:58:30;12.87;;;7.33;;
69594;SDS011;56800;52.142;5.364;2023-08-24T07:00:56;16.38;;;8.68;;
69594;SDS011;56800;52.142;5.364;2023-08-24T07:03:24;15.15;;;10.10;;
69594;SDS011;56800;52.142;5.364;2023-08-24T07:05:50;12.73;;;7.95;;
69594;SDS011;56800;52.142;5.364;2023-08-24T07:08:17;16.35;;;10.00;;
69594;SDS011;56800;52.142;5.364;2023-08-24T07:10:44;14.80;;;8.80;;
69594;SDS011;56800;52.142;5.364;2023-08-24T07:13:11;15.18;;;8.77;;
69594;SDS011;56800;52.142;5.364;2023-08-24T07:15:37;21.23;;;8.75;;
69594;SDS011;56800;52.142;5.364;2023-08-24T07:18:04;17.88;;;9.40;;
69594;SDS011;56800;52.142;5.364;2023-08-24T07:20:32;11.40;;;7.15;;
69594;SDS011;56800;52.142;5.364;2023-08-24T07:22:59;13.13;;;7.20;;
69594;SDS011;56800;52.142;5.364;2023-08-24T07:25:26;12.70;;;8.13;;
69594;SDS011;56800;52.142;5.364;2023-08-24T07:27:56;23.15;;;11.63;;
69594;SDS011;56800;52.142;5.364;2023-08-24T07:30:25;16.02;;;9.65;;
69594;SDS011;56800;52.142;5.364;2023-08-24T07:33:00;13.95;;;9.07;;
69594;SDS011;56800;52.142;5.364;2023-08-24T07:35:27;16.07;;;10.03;;
69594;SDS011;56800;52.142;5.364;2023-08-24T07:37:55;14.48;;;8.88;;
69594;SDS011;56800;52.142;5.364;2023-08-24T07:40:22;15.82;;;9.13;;
69594;SDS011;56800;52.142;5.364;2023-08-24T07:42:51;14.07;;;8.82;;
69594;SDS011;56800;52.142;5.364;2023-08-24T07:45:20;22.40;;;10.32;;
69594;SDS011;56800;52.142;5.364;2023-08-24T07:47:47;13.50;;;9.63;;
69594;SDS011;56800;52.142;5.364;2023-08-24T07:50:15;16.52;;;10.60;;
69594;SDS011;56800;52.142;5.364;2023-08-24T07:52:42;18.50;;;11.48;;
69594;SDS011;56800;52.142;5.364;2023-08-24T07:55:09;19.63;;;9.40;;
69594;SDS011;56800;52.142;5.364;2023-08-24T07:57:36;13.70;;;8.85;;
69594;SDS011;56800;52.142;5.364;2023-08-24T08:00:04;12.57;;;8.40;;
69594;SDS011;56800;52.142;5.364;2023-08-24T08:02:35;16.63;;;8.27;;
69594;SDS011;56800;52.142;5.364;2023-08-24T08:05:04;15.05;;;8.13;;
69594;SDS011;56800;52.142;5.364;2023-08-24T08:07:33;10.63;;;6.85;;
69594;SDS011;56800;52.142;5.364;2023-08-24T08:10:00;16.98;;;8.48;;
69594;SDS011;56800;52.142;5.364;2023-08-24T08:12:27;11.63;;;7.70;;
69594;SDS011;56800;52.142;5.364;2023-08-24T08:14:54;18.05;;;10.65;;
69594;SDS011;56800;52.142;5.364;2023-08-24T08:17:20;10.88;;;7.30;;
69594;SDS011;56800;52.142;5.364;2023-08-24T08:19:53;21.05;;;11.02;;
69594;SDS011;56800;52.142;5.364;2023-08-24T08:22:21;17.63;;;8.82;;
69594;SDS011;56800;52.142;5.364;2023-08-24T08:24:48;18.17;;;10.83;;
69594;SDS011;56800;52.142;5.364;2023-08-24T08:27:16;20.83;;;10.50;;
69594;SDS011;56800;52.142;5.364;2023-08-24T08:29:43;18.55;;;9.88;;
69594;SDS011;56800;52.142;5.364;2023-08-24T08:32:09;17.70;;;11.35;;
69594;SDS011;56800;52.142;5.364;2023-08-24T08:34:38;17.25;;;9.88;;
69594;SDS011;56800;52.142;5.364;2023-08-24T08:37:05;15.13;;;9.03;;
69594;SDS011;56800;52.142;5.364;2023-08-24T08:39:34;17.70;;;10.38;;
69594;SDS011;56800;52.142;5.364;2023-08-24T08:42:01;15.40;;;10.25;;
69594;SDS011;56800;52.142;5.364;2023-08-24T08:44:31;13.65;;;8.30;;
69594;SDS011;56800;52.142;5.364;2023-08-24T08:46:59;14.40;;;9.23;;
69594;SDS011;56800;52.142;5.364;2023-08-24T08:49:26;21.00;;;10.60;;
69594;SDS011;56800;52.142;5.364;2023-08-24T08:51:56;15.50;;;9.82;;
69594;SDS011;56800;52.142;5.364;2023-08-24T08:54:22;13.82;;;8.80;;
69594;SDS011;56800;52.142;5.364;2023-08-24T08:56:49;16.23;;;10.70;;
69594;SDS011;56800;52.142;5.364;2023-08-24T08:59:16;13.02;;;8.35;;
69594;SDS011;56800;52.142;5.364;2023-08-24T09:01:44;14.93;;;9.90;;
69594;SDS011;56800;52.142;5.364;2023-08-24T09:04:13;17.27;;;10.57;;
69594;SDS011;56800;52.142;5.364;2023-08-24T09:06:41;18.58;;;9.00;;
69594;SDS011;56800;52.142;5.364;2023-08-24T09:09:08;12.27;;;7.95;;
69594;SDS011;56800;52.142;5.364;2023-08-24T09:11:35;14.60;;;8.60;;
69594;SDS011;56800;52.142;5.364;2023-08-24T09:14:03;13.20;;;8.77;;
69594;SDS011;56800;52.142;5.364;2023-08-24T09:16:29;15.38;;;8.45;;
69594;SDS011;56800;52.142;5.364;2023-08-24T09:18:56;12.90;;;7.18;;
69594;SDS011;56800;52.142;5.364;2023-08-24T09:21:23;15.68;;;9.43;;
69594;SDS011;56800;52.142;5.364;2023-08-24T09:23:54;12.73;;;8.82;;
69594;SDS011;56800;52.142;5.364;2023-08-24T09:26:27;12.77;;;8.95;;
69594;SDS011;56800;52.142;5.364;2023-08-24T09:28:57;14.82;;;8.77;;
69594;SDS011;56800;52.142;5.364;2023-08-24T09:31:34;14.45;;;7.82;;
69594;SDS011;56800;52.142;5.364;2023-08-24T09:34:02;18.40;;;8.70;;
69594;SDS011;56800;52.142;5.364;2023-08-24T09:36:36;14.43;;;7.07;;
69594;SDS011;56800;52.142;5.364;2023-08-24T09:39:04;17.30;;;8.83;;
69594;SDS011;56800;52.142;5.364;2023-08-24T09:41:37;12.32;;;7.65;;
69594;SDS011;56800;52.142;5.364;2023-08-24T09:44:08;14.50;;;9.57;;
69594;SDS011;56800;52.142;5.364;2023-08-24T09:46:35;14.38;;;8.55;;
69594;SDS011;56800;52.142;5.364;2023-08-24T09:49:05;17.52;;;8.43;;
69594;SDS011;56800;52.142;5.364;2023-08-24T09:51:34;16.05;;;8.45;;
69594;SDS011;56800;52.142;5.364;2023-08-24T09:54:04;10.02;;;7.95;;
69594;SDS011;56800;52.142;5.364;2023-08-24T09:56:36;10.57;;;7.03;;
69594;SDS011;56800;52.142;5.364;2023-08-24T09:59:13;14.85;;;7.97;;
69594;SDS011;56800;52.142;5.364;2023-08-24T10:01:43;13.18;;;7.40;;
69594;SDS011;56800;52.142;5.364;2023-08-24T10:04:14;11.77;;;7.32;;
69594;SDS011;56800;52.142;5.364;2023-08-24T10:06:44;18.73;;;10.40;;
69594;SDS011;56800;52.142;5.364;2023-08-24T10:09:20;13.02;;;8.43;;
69594;SDS011;56800;52.142;5.364;2023-08-24T10:11:53;13.93;;;7.65;;
69594;SDS011;56800;52.142;5.364;2023-08-24T10:17:39;12.43;;;8.98;;
69594;SDS011;56800;52.142;5.364;2023-08-24T10:20:06;16.95;;;9.48;;
69594;SDS011;56800;52.142;5.364;2023-08-24T10:22:36;12.48;;;8.82;;
69594;SDS011;56800;52.142;5.364;2023-08-24T10:25:03;17.52;;;8.43;;
69594;SDS011;56800;52.142;5.364;2023-08-24T10:27:31;16.23;;;7.50;;
69594;SDS011;56800;52.142;5.364;2023-08-24T10:29:58;13.35;;;8.25;;
69594;SDS011;56800;52.142;5.364;2023-08-24T10:32:25;13.85;;;8.38;;
69594;SDS011;56800;52.142;5.364;2023-08-24T10:34:53;18.83;;;9.10;;
69594;SDS011;56800;52.142;5.364;2023-08-24T10:37:27;13.80;;;8.70;;
69594;SDS011;56800;52.142;5.364;2023-08-24T10:39:54;15.27;;;7.63;;
69594;SDS011;56800;52.142;5.364;2023-08-24T10:42:21;12.90;;;6.60;;
69594;SDS011;56800;52.142;5.364;2023-08-24T10:44:48;11.95;;;7.32;;
69594;SDS011;56800;52.142;5.364;2023-08-24T10:47:18;13.18;;;7.68;;
69594;SDS011;56800;52.142;5.364;2023-08-24T10:49:57;15.82;;;8.23;;
69594;SDS011;56800;52.142;5.364;2023-08-24T10:52:32;17.52;;;8.73;;
69594;SDS011;56800;52.142;5.364;2023-08-24T10:55:02;18.00;;;10.17;;
69594;SDS011;56800;52.142;5.364;2023-08-24T10:57:36;16.92;;;9.65;;
69594;SDS011;56800;52.142;5.364;2023-08-24T11:00:05;14.90;;;9.05;;
69594;SDS011;56800;52.142;5.364;2023-08-24T11:02:44;16.15;;;9.45;;
69594;SDS011;56800;52.142;5.364;2023-08-24T11:05:22;12.57;;;8.73;;
69594;SDS011;56800;52.142;5.364;2023-08-24T11:07:54;15.27;;;9.32;;
69594;SDS011;56800;52.142;5.364;2023-08-24T11:10:24;16.00;;;9.40;;
69594;SDS011;56800;52.142;5.364;2023-08-24T11:15:30;14.98;;;9.88;;
69594;SDS011;56800;52.142;5.364;2023-08-24T11:20:48;15.00;;;9.77;;
69594;SDS011;56800;52.142;5.364;2023-08-24T11:23:18;14.30;;;8.15;;
69594;SDS011;56800;52.142;5.364;2023-08-24T11:25:46;16.77;;;9.00;;
69594;SDS011;56800;52.142;5.364;2023-08-24T11:28:18;13.18;;;7.72;;
69594;SDS011;56800;52.142;5.364;2023-08-24T11:30:46;14.18;;;7.55;;
69594;SDS011;56800;52.142;5.364;2023-08-24T11:33:13;13.27;;;8.32;;
69594;SDS011;56800;52.142;5.364;2023-08-24T11:35:41;22.40;;;10.07;;
69594;SDS011;56800;52.142;5.364;2023-08-24T11:38:09;19.08;;;10.02;;
69594;SDS011;56800;52.142;5.364;2023-08-24T11:40:36;15.20;;;9.27;;
69594;SDS011;56800;52.142;5.364;2023-08-24T11:43:04;18.83;;;10.07;;
69594;SDS011;56800;52.142;5.364;2023-08-24T11:45:32;13.70;;;9.25;;
69594;SDS011;56800;52.142;5.364;2023-08-24T11:48:00;14.30;;;9.15;;
69594;SDS011;56800;52.142;5.364;2023-08-24T11:50:28;22.88;;;9.45;;
69594;SDS011;56800;52.142;5.364;2023-08-24T11:52:55;14.43;;;8.63;;
69594;SDS011;56800;52.142;5.364;2023-08-24T11:55:22;17.10;;;9.27;;
69594;SDS011;56800;52.142;5.364;2023-08-24T11:57:50;16.80;;;11.13;;
69594;SDS011;56800;52.142;5.364;2023-08-24T12:00:20;15.70;;;9.50;;
69594;SDS011;56800;52.142;5.364;2023-08-24T12:02:48;17.83;;;9.88;;
69594;SDS011;56800;52.142;5.364;2023-08-24T12:05:22;17.42;;;9.35;;
69594;SDS011;56800;52.142;5.364;2023-08-24T12:07:51;19.40;;;11.10;;
69594;SDS011;56800;52.142;5.364;2023-08-24T12:10:20;16.42;;;10.95;;
69594;SDS011;56800;52.142;5.364;2023-08-24T12:12:47;25.05;;;14.70;;
69594;SDS011;56800;52.142;5.364;2023-08-24T12:15:18;19.05;;;10.82;;
69594;SDS011;56800;52.142;5.364;2023-08-24T12:17:47;25.05;;;14.02;;
69594;SDS011;56800;52.142;5.364;2023-08-24T12:20:21;19.90;;;15.05;;
69594;SDS011;56800;52.142;5.364;2023-08-24T12:22:52;21.02;;;13.90;;
69594;SDS011;56800;52.142;5.364;2023-08-24T12:25:22;19.50;;;11.50;;
69594;SDS011;56800;52.142;5.364;2023-08-24T12:27:50;17.33;;;13.50;;
69594;SDS011;56800;52.142;5.364;2023-08-24T12:30:21;19.98;;;13.65;;
69594;SDS011;56800;52.142;5.364;2023-08-24T12:32:48;17.45;;;11.32;;
69594;SDS011;56800;52.142;5.364;2023-08-24T12:35:17;18.55;;;10.63;;
69594;SDS011;56800;52.142;5.364;2023-08-24T12:37:44;21.73;;;14.55;;
69594;SDS011;56800;52.142;5.364;2023-08-24T12:40:11;16.05;;;11.35;;
69594;SDS011;56800;52.142;5.364;2023-08-24T12:42:39;16.15;;;8.93;;
69594;SDS011;56800;52.142;5.364;2023-08-24T12:45:06;19.33;;;11.50;;
69594;SDS011;56800;52.142;5.364;2023-08-24T12:47:33;15.65;;;10.00;;
69594;SDS011;56800;52.142;5.364;2023-08-24T12:50:04;27.65;;;9.15;;
69594;SDS011;56800;52.142;5.364;2023-08-24T12:52:31;17.00;;;11.35;;
69594;SDS011;56800;52.142;5.364;2023-08-24T12:54:58;18.80;;;11.85;;
69594;SDS011;56800;52.142;5.364;2023-08-24T12:57:24;21.92;;;12.75;;
69594;SDS011;56800;52.142;5.364;2023-08-24T12:59:51;18.23;;;9.15;;
69594;SDS011;56800;52.142;5.364;2023-08-24T13:02:20;21.52;;;10.23;;
69594;SDS011;56800;52.142;5.364;2023-08-24T13:04:58;17.77;;;9.63;;
69594;SDS011;56800;52.142;5.364;2023-08-24T13:07:27;18.13;;;9.70;;
69594;SDS011;56800;52.142;5.364;2023-08-24T13:09:54;17.92;;;12.68;;
69594;SDS011;56800;52.142;5.364;2023-08-24T13:12:20;17.52;;;12.43;;
69594;SDS011;56800;52.142;5.364;2023-08-24T13:14:47;20.83;;;12.98;;
69594;SDS011;56800;52.142;5.364;2023-08-24T13:17:14;21.08;;;14.23;;
69594;SDS011;56800;52.142;5.364;2023-08-24T13:19:41;18.75;;;12.00;;
69594;SDS011;56800;52.142;5.364;2023-08-24T13:22:08;21.30;;;14.07;;
69594;SDS011;56800;52.142;5.364;2023-08-24T13:24:34;24.98;;;13.38;;
69594;SDS011;56800;52.142;5.364;2023-08-24T13:27:01;23.85;;;15.02;;
69594;SDS011;56800;52.142;5.364;2023-08-24T13:29:29;23.88;;;12.85;;
69594;SDS011;56800;52.142;5.364;2023-08-24T13:31:56;17.77;;;12.68;;
69594;SDS011;56800;52.142;5.364;2023-08-24T13:34:22;18.90;;;12.93;;
69594;SDS011;56800;52.142;5.364;2023-08-24T13:36:49;24.65;;;13.45;;
69594;SDS011;56800;52.142;5.364;2023-08-24T13:39:16;21.67;;;13.32;;
69594;SDS011;56800;52.142;5.364;2023-08-24T13:41:43;22.55;;;10.40;;
69594;SDS011;56800;52.142;5.364;2023-08-24T13:44:10;23.75;;;15.18;;
69594;SDS011;56800;52.142;5.364;2023-08-24T13:46:36;18.67;;;14.55;;
69594;SDS011;56800;52.142;5.364;2023-08-24T13:49:03;22.75;;;13.68;;
69594;SDS011;56800;52.142;5.364;2023-08-24T13:51:30;25.17;;;15.73;;
69594;SDS011;56800;52.142;5.364;2023-08-24T13:53:56;21.92;;;15.98;;
69594;SDS011;56800;52.142;5.364;2023-08-24T13:56:23;22.58;;;13.65;;
69594;SDS011;56800;52.142;5.364;2023-08-24T13:58:50;23.42;;;13.60;;
69594;SDS011;56800;52.142;5.364;2023-08-24T14:01:17;19.98;;;13.45;;
69594;SDS011;56800;52.142;5.364;2023-08-24T14:03:43;23.55;;;14.10;;
69594;SDS011;56800;52.142;5.364;2023-08-24T14:06:10;21.98;;;14.73;;
69594;SDS011;56800;52.142;5.364;2023-08-24T14:08:37;29.02;;;16.05;;
69594;SDS011;56800;52.142;5.364;2023-08-24T14:11:04;24.60;;;15.50;;
69594;SDS011;56800;52.142;5.364;2023-08-24T14:13:30;24.42;;;14.38;;
69594;SDS011;56800;52.142;5.364;2023-08-24T14:15:57;24.27;;;17.05;;
69594;SDS011;56800;52.142;5.364;2023-08-24T14:18:24;22.65;;;16.92;;
69594;SDS011;56800;52.142;5.364;2023-08-24T14:20:51;20.35;;;14.55;;
69594;SDS011;56800;52.142;5.364;2023-08-24T14:23:17;25.17;;;17.60;;
69594;SDS011;56800;52.142;5.364;2023-08-24T14:25:45;24.33;;;17.58;;
69594;SDS011;56800;52.142;5.364;2023-08-24T14:28:13;25.17;;;17.17;;
69594;SDS011;56800;52.142;5.364;2023-08-24T14:30:40;23.63;;;17.75;;
69594;SDS011;56800;52.142;5.364;2023-08-24T14:33:07;25.85;;;19.52;;
69594;SDS011;56800;52.142;5.364;2023-08-24T14:35:34;25.95;;;18.42;;
69594;SDS011;56800;52.142;5.364;2023-08-24T14:38:01;22.88;;;17.60;;
69594;SDS011;56800;52.142;5.364;2023-08-24T14:40:28;22.27;;;16.70;;
69594;SDS011;56800;52.142;5.364;2023-08-24T14:42:54;23.77;;;15.32;;
69594;SDS011;56800;52.142;5.364;2023-08-24T14:45:21;24.70;;;16.55;;
69594;SDS011;56800;52.142;5.364;2023-08-24T14:47:48;25.90;;;17.50;;
69594;SDS011;56800;52.142;5.364;2023-08-24T14:50:15;21.17;;;15.80;;
69594;SDS011;56800;52.142;5.364;2023-08-24T14:52:42;20.95;;;16.33;;
69594;SDS011;56800;52.142;5.364;2023-08-24T14:55:09;21.05;;;15.88;;